Frederick Municipal Airport


Codes: KFDK/FDK
Name: Frederick Municipal Airport
City: Frederick
Country: United States
Elevation: 303 ft.
Website:
Wikipedia:

Photos at Frederick Municipal Airport


   Photos courtesy of SpottingLog. You can add your own sightings and photos by signing up for a free trial today.



No photos found.

Weather at Frederick Municipal Airport


Time (UTC)DescriptionTempratureWindCloud coverageVisibilityPressureHumidity
19-Apr-2024 03:00Clear Sky14°C9 mph, E0%10000m1019hPa88%
19-Apr-2024 06:00Scattered Clouds13°C7 mph, E33%10000m1019hPa86%
19-Apr-2024 09:00Broken Clouds11°C7 mph, SE67%10000m1019hPa85%
19-Apr-2024 12:00Broken Clouds9°C7 mph, SE83%10000m1020hPa87%
19-Apr-2024 15:00Overcast Clouds13°C9 mph, S97%10000m1019hPa79%
19-Apr-2024 18:00Overcast Clouds15°C11 mph, S98%10000m1016hPa77%
19-Apr-2024 21:00Overcast Clouds19°C11 mph, S99%10000m1014hPa74%
20-Apr-2024 00:00Light Rain16°C9 mph, S100%10000m1014hPa92%
20-Apr-2024 03:00Light Rain14°C4 mph, W95%10000m1015hPa95%
20-Apr-2024 06:00Overcast Clouds12°C9 mph, NW97%10000m1016hPa84%
20-Apr-2024 09:00Broken Clouds9°C4 mph, NW69%10000m1017hPa85%
20-Apr-2024 12:00Broken Clouds10°C4 mph, W79%10000m1018hPa75%
20-Apr-2024 15:00Scattered Clouds14°C16 mph, W26%10000m1018hPa57%
20-Apr-2024 18:00Scattered Clouds16°C18 mph, W32%10000m1016hPa45%
20-Apr-2024 21:00Overcast Clouds15°C16 mph, NW100%10000m1016hPa54%
21-Apr-2024 00:00Broken Clouds9°C7 mph, NW67%10000m1018hPa59%
21-Apr-2024 03:00Scattered Clouds6°C7 mph, NW38%10000m1020hPa68%
21-Apr-2024 06:00Broken Clouds5°C4 mph, NW69%10000m1020hPa64%
21-Apr-2024 09:00Overcast Clouds4°C2 mph, W98%10000m1020hPa66%
21-Apr-2024 12:00Overcast Clouds6°C4 mph, W94%10000m1021hPa67%
21-Apr-2024 15:00Overcast Clouds11°C11 mph, W96%10000m1020hPa55%
21-Apr-2024 18:00Overcast Clouds13°C11 mph, W98%10000m1018hPa48%
21-Apr-2024 21:00Overcast Clouds13°C9 mph, NW100%10000m1016hPa49%
22-Apr-2024 00:00Overcast Clouds9°C4 mph, NW100%10000m1017hPa67%
22-Apr-2024 03:00Overcast Clouds7°C4 mph, NW100%10000m1018hPa66%
22-Apr-2024 06:00Overcast Clouds6°C4 mph, NW100%10000m1017hPa68%
22-Apr-2024 09:00Scattered Clouds4°C4 mph, NW39%10000m1017hPa76%
22-Apr-2024 12:00Few Clouds7°C4 mph, NW20%10000m1018hPa69%
22-Apr-2024 15:00Clear Sky13°C4 mph, NW0%10000m1018hPa52%
22-Apr-2024 18:00Clear Sky16°C4 mph, NW2%10000m1017hPa45%
22-Apr-2024 21:00Clear Sky16°C4 mph, NW7%10000m1016hPa45%
23-Apr-2024 00:00Clear Sky11°C4 mph, S5%10000m1017hPa62%
23-Apr-2024 03:00Clear Sky8°C4 mph, S4%10000m1019hPa69%
23-Apr-2024 06:00Clear Sky7°C4 mph, S6%10000m1019hPa75%
23-Apr-2024 09:00Clear Sky6°C7 mph, S6%10000m1019hPa84%
23-Apr-2024 12:00Few Clouds9°C7 mph, S12%10000m1020hPa76%
23-Apr-2024 15:00Few Clouds15°C13 mph, S20%10000m1019hPa61%
23-Apr-2024 18:00Few Clouds19°C18 mph, S18%10000m1016hPa50%
23-Apr-2024 21:00Broken Clouds19°C13 mph, S66%10000m1014hPa56%
24-Apr-2024 00:00Broken Clouds15°C11 mph, S83%10000m1014hPa60%